Time;durP1;ratioP1;P1;durP2;ratioP2;P2;SDS_P1;SDS_P2;PMS_P1;PMS_P2;Temp;Humidity;BMP_temperature;BMP_pressure;BME280_temperature;BME280_humidity;BME280_pressure;Samples;Min_cycle;Max_cycle;Signal;HPM_P1;HPM_P2
2022/01/15 00:00:06;;;;;;;140.93;48.40;;;;;;;1.75;100.00;103136.50;4989239;28;20407;-81
2022/01/15 00:02:31;;;;;;;141.63;48.17;;;;;;;1.74;100.00;103137.34;4988264;28;20073;-81
2022/01/15 00:04:56;;;;;;;165.75;48.67;;;;;;;1.76;100.00;103140.03;4988697;28;20038;-82
2022/01/15 00:07:21;;;;;;;155.52;43.80;;;;;;;1.73;100.00;103148.72;4990093;28;20379;-82
2022/01/15 00:09:50;;;;;;;134.02;42.28;;;;;;;1.71;100.00;103146.91;4990103;28;20026;-82
2022/01/15 00:12:15;;;;;;;127.80;39.53;;;;;;;1.65;100.00;103141.53;4986850;28;20117;-82
2022/01/15 00:14:42;;;;;;;122.35;36.90;;;;;;;1.62;100.00;103142.31;4989466;28;20165;-82
2022/01/15 00:17:15;;;;;;;125.70;40.47;;;;;;;1.60;100.00;103137.91;4988148;28;20038;-82
2022/01/15 00:19:44;;;;;;;;;;;;;;;1.63;100.00;103136.25;4989612;28;20038;-83
2022/01/15 00:22:10;;;;;;;147.48;38.85;;;;;;;1.57;100.00;103122.09;4986960;28;19917;-82
2022/01/15 00:24:36;;;;;;;141.38;40.95;;;;;;;1.57;100.00;103127.34;4989460;28;20554;-82
2022/01/15 00:27:02;;;;;;;127.63;41.00;;;;;;;1.56;100.00;103122.94;4988917;28;20034;-82
2022/01/15 00:29:29;;;;;;;164.70;44.63;;;;;;;1.54;100.00;103119.38;4972576;28;20026;-82
2022/01/15 00:31:55;;;;;;;136.18;42.28;;;;;;;1.59;100.00;103123.00;4986803;28;20035;-82
2022/01/15 00:34:20;;;;;;;140.60;40.25;;;;;;;1.58;100.00;103122.09;4988846;28;20349;-81
2022/01/15 00:36:45;;;;;;;133.80;39.95;;;;;;;1.59;100.00;103117.75;4989425;28;20648;-82
2022/01/15 00:39:11;;;;;;;123.78;38.70;;;;;;;1.59;100.00;103115.13;4988983;28;20081;-82
2022/01/15 00:41:36;;;;;;;134.10;39.63;;;;;;;1.57;100.00;103111.59;4987311;28;20022;-82
2022/01/15 00:44:01;;;;;;;136.07;39.97;;;;;;;1.59;100.00;103120.38;4987661;28;20022;-82
2022/01/15 00:46:27;;;;;;;157.60;43.00;;;;;;;1.54;100.00;103101.00;4988544;28;20066;-82
2022/01/15 00:48:52;;;;;;;132.38;40.53;;;;;;;1.57;100.00;103096.72;4988597;28;20030;-82
2022/01/15 00:51:17;;;;;;;150.30;42.58;;;;;;;1.58;100.00;103092.34;4985907;28;20380;-82
2022/01/15 00:53:42;;;;;;;191.65;44.13;;;;;;;1.54;100.00;103091.41;4989786;28;20392;-82
2022/01/15 00:56:08;;;;;;;154.13;44.10;;;;;;;1.53;100.00;103080.88;4988505;28;20133;-82
2022/01/15 00:58:33;;;;;;;147.25;41.42;;;;;;;1.48;100.00;103071.16;4989541;28;20039;-82
2022/01/15 01:00:58;;;;;;;148.15;43.88;;;;;;;1.53;100.00;103086.13;4985907;28;20384;-82
2022/01/15 01:03:23;;;;;;;150.70;42.80;;;;;;;1.52;100.00;103086.97;4988494;28;20242;-82
2022/01/15 01:05:49;;;;;;;165.95;43.33;;;;;;;1.46;100.00;103077.22;4986125;28;20034;-82
2022/01/15 01:08:14;;;;;;;135.90;41.75;;;;;;;1.46;100.00;103087.72;4982346;28;20027;-82
2022/01/15 01:20:04;;;;;;;152.32;40.90;;;;;;;1.39;100.00;103076.22;4981450;28;20097;-82
2022/01/15 01:23:46;;;;;;;141.05;40.38;;;;;;;1.38;100.00;103068.28;4973838;28;20038;-82
2022/01/15 01:26:29;;;;;;;150.90;41.97;;;;;;;1.39;100.00;103065.72;4974510;28;20037;-82
2022/01/15 01:34:33;;;;;;;123.47;36.13;;;;;;;1.36;100.00;103063.00;4979221;28;20305;-82
2022/01/15 01:40:17;;;;;;;141.20;37.92;;;;;;;1.34;100.00;103064.72;4932995;29;20054;-82
2022/01/15 01:42:52;;;;;;;125.50;34.92;;;;;;;1.31;100.00;103062.03;4927520;29;20080;-82
2022/01/15 01:45:18;;;;;;;115.10;36.90;;;;;;;1.32;100.00;103053.28;4931845;29;20078;-82
2022/01/15 01:47:44;;;;;;;113.20;33.03;;;;;;;1.28;100.00;103061.06;4928493;29;20247;-83
2022/01/15 01:50:24;;;;;;;95.05;29.35;;;;;;;1.25;100.00;103056.63;4929936;29;20251;-83
2022/01/15 01:52:53;;;;;;;103.28;30.90;;;;;;;1.20;100.00;103055.63;4938561;29;20067;-82
2022/01/15 01:55:22;;;;;;;107.57;32.20;;;;;;;1.12;100.00;103059.81;4927469;29;20050;-83
2022/01/15 01:57:49;;;;;;;100.10;31.95;;;;;;;1.12;100.00;103046.69;4937870;29;20649;-82
2022/01/15 02:00:16;;;;;;;94.18;28.98;;;;;;;1.11;100.00;103051.06;4926644;29;20529;-83
2022/01/15 02:02:42;;;;;;;108.25;30.17;;;;;;;1.15;100.00;103046.78;4930113;29;20024;-82
2022/01/15 02:05:08;;;;;;;96.60;28.20;;;;;;;1.14;100.00;103047.63;4926208;29;20054;-82
2022/01/15 02:07:35;;;;;;;93.75;29.55;;;;;;;1.12;100.00;103037.09;4931308;29;20048;-82
2022/01/15 02:10:01;;;;;;;87.40;28.42;;;;;;;1.12;100.00;103034.47;4934760;29;20035;-81
2022/01/15 02:12:26;;;;;;;100.13;30.75;;;;;;;1.11;100.00;103031.81;4931777;29;20119;-82
2022/01/15 02:14:51;;;;;;;96.50;30.40;;;;;;;1.14;100.00;103040.66;4967650;28;20045;-82
2022/01/15 02:17:19;;;;;;;95.35;28.95;;;;;;;1.12;100.00;103034.47;4969895;28;20062;-82
2022/01/15 02:19:58;;;;;;;91.43;28.65;;;;;;;1.09;100.00;103030.91;4970457;28;20023;-82
2022/01/15 02:25:07;;;;;;;92.38;27.17;;;;;;;1.05;100.00;103026.44;4981786;28;20092;-81
2022/01/15 02:27:33;;;;;;;79.90;27.20;;;;;;;1.11;100.00;103031.81;4985041;28;20860;-82
2022/01/15 02:30:03;;;;;;;87.60;27.67;;;;;;;1.10;100.00;103040.53;4972720;28;20089;-82
2022/01/15 02:32:32;;;;;;;79.50;26.55;;;;;;;1.09;100.00;103034.41;4976300;28;20534;-82
2022/01/15 02:34:57;;;;;;;80.93;26.38;;;;;;;1.10;100.00;103024.81;4981018;28;20034;-82
2022/01/15 02:37:23;;;;;;;89.13;26.73;;;;;;;1.08;100.00;103021.25;4973545;28;20408;-82
2022/01/15 02:39:48;;;;;;;85.18;26.67;;;;;;;1.10;100.00;103019.56;4974326;28;20057;-82
2022/01/15 02:42:13;;;;;;;89.07;27.52;;;;;;;1.10;100.00;103024.81;4979820;28;20093;-82
2022/01/15 02:44:42;;;;;;;83.35;27.48;;;;;;;1.07;100.00;103017.75;4971631;28;20037;-82
2022/01/15 02:49:33;;;;;;;78.22;25.00;;;;;;;1.04;100.00;102995.81;4978023;28;20571;-82
2022/01/15 02:51:58;;;;;;;76.05;24.23;;;;;;;0.98;100.00;103000.06;4971399;28;20447;-82
2022/01/15 02:54:24;;;;;;;69.60;22.73;;;;;;;0.93;100.00;102987.72;4974515;28;20027;-82
2022/01/15 02:56:49;;;;;;;71.75;22.80;;;;;;;0.92;100.00;102988.53;4978618;28;20038;-82
2022/01/15 02:59:18;;;;;;;62.47;21.42;;;;;;;0.85;100.00;102974.41;4959841;28;20267;-82
2022/01/15 03:01:44;;;;;;;69.40;23.33;;;;;;;0.84;100.00;102977.00;4971685;28;20385;-82
2022/01/15 03:04:09;;;;;;;68.32;23.40;;;;;;;0.83;100.00;102972.59;4979884;28;20057;-82
2022/01/15 03:06:34;;;;;;;61.15;21.52;;;;;;;0.79;100.00;102970.75;4983420;28;20121;-82
2022/01/15 03:09:00;;;;;;;64.82;22.60;;;;;;;0.76;100.00;102966.34;4972274;28;20425;-82
2022/01/15 03:11:27;;;;;;;79.53;25.63;;;;;;;0.78;100.00;102969.88;4983069;28;20035;-82
2022/01/15 03:13:52;;;;;;;77.03;25.45;;;;;;;0.77;100.00;102965.47;4971522;28;20122;-82
2022/01/15 03:16:19;;;;;;;78.80;24.65;;;;;;;0.80;100.00;102964.69;4979454;28;20568;-83
2022/01/15 03:18:45;;;;;;;71.40;21.90;;;;;;;0.79;100.00;102955.91;4990377;28;20026;-83
2022/01/15 03:21:11;;;;;;;68.85;24.33;;;;;;;0.79;100.00;102961.16;4971513;28;20365;-82
2022/01/15 03:23:36;;;;;;;77.85;25.20;;;;;;;0.82;100.00;102965.59;4991111;28;20034;-82
2022/01/15 03:26:03;;;;;;;70.28;24.92;;;;;;;0.79;100.00;102952.41;4981123;28;20030;-83
2022/01/15 03:28:28;;;;;;;72.35;23.35;;;;;;;0.75;100.00;102948.81;4990935;28;20022;-82
2022/01/15 03:30:53;;;;;;;74.20;24.65;;;;;;;0.73;100.00;102945.28;4988286;28;20365;-82
2022/01/15 03:33:18;;;;;;;71.70;24.08;;;;;;;0.75;100.00;102946.19;4990192;28;20042;-83
2022/01/15 03:35:44;;;;;;;79.75;25.25;;;;;;;0.72;100.00;102951.38;4991156;28;20033;-83
2022/01/15 03:38:09;;;;;;;74.63;24.80;;;;;;;0.75;100.00;102948.81;4990212;28;20088;-82
2022/01/15 03:40:35;;;;;;;79.10;25.42;;;;;;;0.76;100.00;102955.84;4988246;28;20092;-82
2022/01/15 03:43:02;;;;;;;84.03;26.55;;;;;;;0.78;100.00;102948.91;4990283;28;20034;-83
2022/01/15 03:45:28;;;;;;;83.95;27.40;;;;;;;0.80;100.00;102957.69;4990396;28;20376;-82
2022/01/15 03:47:54;;;;;;;86.40;28.33;;;;;;;0.81;100.00;102948.09;4973299;28;20022;-82
2022/01/15 03:50:19;;;;;;;80.15;26.15;;;;;;;0.81;100.00;102943.72;4987606;28;20030;-82
2022/01/15 03:52:45;;;;;;;88.22;31.23;;;;;;;0.78;100.00;102935.78;4990306;28;20522;-82
2022/01/15 03:55:13;;;;;;;90.32;28.58;;;;;;;0.81;100.00;102937.59;4985195;28;20027;-83
2022/01/15 03:57:39;;;;;;;80.75;29.05;;;;;;;0.81;100.00;102922.75;4977918;28;20126;-82
2022/01/15 04:00:12;;;;;;;86.35;28.77;;;;;;;0.84;100.00;102917.59;4982472;28;20061;-82
2022/01/15 04:02:37;;;;;;;94.90;29.15;;;;;;;0.84;100.00;102922.84;4979681;28;20030;-82
2022/01/15 04:05:03;;;;;;;94.63;31.13;;;;;;;0.89;100.00;102926.44;4969962;28;20049;-83
2022/01/15 04:07:28;;;;;;;88.55;29.27;;;;;;;0.87;100.00;102925.50;4977306;28;20054;-82
2022/01/15 04:09:53;;;;;;;87.47;28.05;;;;;;;0.86;100.00;102923.75;4974512;28;20035;-82
2022/01/15 04:12:18;;;;;;;81.18;26.80;;;;;;;0.89;100.00;102925.56;4970892;28;20026;-82
2022/01/15 04:14:44;;;;;;;77.72;27.02;;;;;;;0.84;100.00;102906.22;4973798;28;20046;-82
2022/01/15 04:17:09;;;;;;;76.68;26.42;;;;;;;0.88;100.00;102906.31;4973370;28;20027;-82
2022/01/15 04:19:36;;;;;;;83.63;27.15;;;;;;;0.86;100.00;102902.78;4972668;28;20041;-82
2022/01/15 04:22:02;;;;;;;76.28;25.58;;;;;;;0.90;100.00;102909.84;4969682;28;20077;-82
2022/01/15 04:24:27;;;;;;;79.63;25.13;;;;;;;0.89;100.00;102904.59;4965442;28;20498;-82
2022/01/15 04:26:52;;;;;;;83.28;27.88;;;;;;;0.88;100.00;102903.72;4984989;28;20030;-81
2022/01/15 04:29:17;;;;;;;76.53;28.42;;;;;;;0.89;100.00;102899.34;4972131;28;20035;-82
2022/01/15 04:31:49;;;;;;;85.03;30.80;;;;;;;0.83;100.00;102889.59;4980733;28;20180;-82
2022/01/15 04:34:33;;;;;;;93.55;32.13;;;;;;;0.82;100.00;102898.31;4975728;28;20630;-82
2022/01/15 04:37:09;;;;;;;90.63;31.92;;;;;;;0.83;100.00;102894.81;4952152;28;20018;-82
2022/01/15 04:39:34;;;;;;;91.53;30.55;;;;;;;0.83;100.00;102894.81;4981850;28;20158;-82
2022/01/15 04:42:00;;;;;;;94.68;31.85;;;;;;;0.82;100.00;102881.69;4977328;28;20022;-82
2022/01/15 04:44:25;;;;;;;89.55;30.88;;;;;;;0.81;100.00;102879.94;4975915;28;20313;-82
2022/01/15 04:46:52;;;;;;;93.22;30.70;;;;;;;0.84;100.00;102877.41;4977511;28;20117;-82
2022/01/15 04:49:18;;;;;;;91.88;31.58;;;;;;;0.83;100.00;102872.97;4972570;28;20096;-82
2022/01/15 04:51:43;;;;;;;99.10;33.03;;;;;;;0.82;100.00;102881.69;4975932;28;20485;-82
2022/01/15 04:54:08;;;;;;;83.35;30.42;;;;;;;0.83;100.00;102884.34;4969294;28;20037;-81
2022/01/15 04:56:34;;;;;;;85.75;32.55;;;;;;;0.79;100.00;102869.41;4978218;28;20026;-82
2022/01/15 04:58:59;;;;;;;85.25;30.08;;;;;;;0.85;100.00;102876.53;4978994;28;20030;-82
2022/01/15 05:01:24;;;;;;;83.85;31.17;;;;;;;0.86;100.00;102873.94;4973948;28;20023;-82
2022/01/15 05:03:50;;;;;;;85.13;29.00;;;;;;;0.88;100.00;102868.72;4984988;28;20392;-82
2022/01/15 05:06:15;;;;;;;79.45;30.00;;;;;;;0.88;100.00;102866.09;4981074;28;20038;-82
2022/01/15 05:08:41;;;;;;;75.72;28.15;;;;;;;0.86;100.00;102857.31;4969287;28;20042;-82
2022/01/15 05:11:14;;;;;;;70.25;26.80;;;;;;;0.84;100.00;102862.53;4974507;28;20034;-82
2022/01/15 05:13:40;;;;;;;73.70;26.15;;;;;;;0.90;100.00;102869.66;4973849;28;20570;-83
2022/01/15 05:16:05;;;;;;;74.03;26.00;;;;;;;0.86;100.00;102867.81;4968346;28;20067;-83
2022/01/15 05:18:30;;;;;;;68.60;25.60;;;;;;;0.86;100.00;102862.56;4971960;28;20069;-83
2022/01/15 05:20:57;;;;;;;68.47;24.63;;;;;;;0.84;100.00;102864.28;4969401;28;20022;-83
2022/01/15 05:23:22;;;;;;;68.53;25.20;;;;;;;0.82;100.00;102855.47;4960258;28;20026;-83
2022/01/15 05:25:47;;;;;;;74.15;26.10;;;;;;;0.82;100.00;102855.47;4983347;28;20034;-83
2022/01/15 05:28:13;;;;;;;68.65;25.88;;;;;;;0.77;100.00;102852.75;4978405;28;20058;-83
2022/01/15 05:30:38;;;;;;;73.75;27.02;;;;;;;0.76;100.00;102844.88;4977785;28;20101;-83
2022/01/15 05:33:03;;;;;;;76.78;26.25;;;;;;;0.74;100.00;102836.97;4968264;28;20508;-83
2022/01/15 05:35:29;;;;;;;71.50;26.63;;;;;;;0.77;100.00;102841.41;4969679;28;20050;-83
2022/01/15 05:37:55;;;;;;;79.35;28.63;;;;;;;0.77;100.00;102837.03;4983230;28;21566;-82
2022/01/15 05:40:21;;;;;;;77.50;28.50;;;;;;;0.79;100.00;102835.31;4972595;28;20748;-82
2022/01/15 05:42:46;;;;;;;74.50;26.88;;;;;;;0.79;100.00;102826.56;4969370;28;20027;-82
2022/01/15 05:45:13;;;;;;;76.85;26.90;;;;;;;0.74;100.00;102816.00;4977842;28;20045;-82
2022/01/15 05:47:38;;;;;;;79.50;28.25;;;;;;;0.79;100.00;102822.22;4969061;28;20038;-83
2022/01/15 05:50:04;;;;;;;82.03;27.77;;;;;;;0.79;100.00;102816.09;4960231;28;20034;-83
2022/01/15 05:52:30;;;;;;;77.80;27.05;;;;;;;0.78;100.00;102825.69;4974649;28;20109;-82
2022/01/15 05:54:55;;;;;;;61.10;24.23;;;;;;;0.77;100.00;102820.44;4986483;28;20023;-83
2022/01/15 05:57:20;;;;;;;69.93;26.83;;;;;;;0.76;100.00;102824.78;4986273;28;20646;-83
2022/01/15 05:59:45;;;;;;;79.78;26.40;;;;;;;0.76;100.00;102824.78;4979359;28;20364;-82
2022/01/15 06:02:11;;;;;;;80.25;27.05;;;;;;;0.72;100.00;102823.84;4981004;28;20034;-82
2022/01/15 06:04:36;;;;;;;67.57;24.52;;;;;;;0.74;100.00;102813.38;4984971;28;20112;-83
2022/01/15 06:07:02;;;;;;;64.45;23.65;;;;;;;0.71;100.00;102802.81;4968088;28;20445;-83
2022/01/15 06:09:27;;;;;;;65.70;21.90;;;;;;;0.73;100.00;102806.38;4981994;28;20584;-83
2022/01/15 06:11:55;;;;;;;67.72;23.70;;;;;;;0.72;100.00;102802.00;4974973;28;20031;-83
2022/01/15 06:14:21;;;;;;;71.38;24.20;;;;;;;0.72;100.00;102812.47;4969176;28;20027;-82
2022/01/15 06:16:46;;;;;;;82.80;24.13;;;;;;;0.70;100.00;102812.41;4968408;28;20030;-83
2022/01/15 06:19:11;;;;;;;71.00;24.33;;;;;;;0.69;100.00;102801.91;4969309;28;20026;-83
2022/01/15 06:21:36;;;;;;;89.68;24.90;;;;;;;0.66;100.00;102800.09;4977902;28;20420;-82
2022/01/15 06:24:02;;;;;;;81.57;22.23;;;;;;;0.66;100.00;102797.47;4985754;28;20030;-82
2022/01/15 06:26:27;;;;;;;72.68;22.00;;;;;;;0.62;100.00;102797.38;4983488;28;20038;-83
2022/01/15 06:28:52;;;;;;;110.05;25.73;;;;;;;0.59;100.00;102793.00;4980724;28;20030;-82
2022/01/15 06:31:17;;;;;;;73.82;24.42;;;;;;;0.58;100.00;102790.31;4990783;28;20037;-83
2022/01/15 06:33:43;;;;;;;75.82;23.23;;;;;;;0.53;100.00;102779.75;4982066;28;20027;-83
2022/01/15 06:36:08;;;;;;;74.97;24.73;;;;;;;0.58;100.00;102782.44;4976314;28;20027;-84
2022/01/15 06:38:34;;;;;;;65.65;22.50;;;;;;;0.58;100.00;102791.19;4972443;28;20023;-83
2022/01/15 06:40:59;;;;;;;68.75;23.40;;;;;;;0.61;100.00;102796.50;4983200;28;20113;-83
2022/01/15 06:43:24;;;;;;;74.32;23.48;;;;;;;0.61;100.00;102787.75;4990278;28;20034;-84
2022/01/15 06:45:50;;;;;;;80.85;25.20;;;;;;;0.55;100.00;102777.16;4978987;28;20039;-83
2022/01/15 06:48:15;;;;;;;75.75;24.55;;;;;;;0.62;100.00;102792.16;4970779;28;20463;-82
2022/01/15 06:50:42;;;;;;;73.93;22.27;;;;;;;0.62;100.00;102792.16;4975125;28;20031;-81
2022/01/15 06:53:07;;;;;;;87.28;24.77;;;;;;;0.56;100.00;102784.16;4970819;28;20027;-81
2022/01/15 06:55:32;;;;;;;66.88;21.23;;;;;;;0.52;100.00;102787.56;4972085;28;20045;-82
2022/01/15 06:57:57;;;;;;;86.90;23.90;;;;;;;0.56;100.00;102792.03;4981177;28;20051;-82
2022/01/15 07:00:24;;;;;;;91.45;22.55;;;;;;;0.54;100.00;102796.34;4978058;28;20061;-82
2022/01/15 07:02:50;;;;;;;75.70;23.13;;;;;;;0.49;100.00;102784.03;4971792;28;20035;-81
2022/01/15 07:05:15;;;;;;;63.30;21.17;;;;;;;0.51;100.00;102796.28;4971187;28;20039;-79
2022/01/15 07:07:44;;;;;;;85.43;23.55;;;;;;;0.49;100.00;102791.00;4974546;28;20536;-80
2022/01/15 07:10:10;;;;;;;102.80;22.98;;;;;;;0.46;100.00;102797.06;4979973;28;20078;-80
2022/01/15 07:12:36;;;;;;;88.30;23.40;;;;;;;0.41;100.00;102788.22;4975191;28;20025;-81
2022/01/15 07:15:02;;;;;;;88.40;22.10;;;;;;;0.39;100.00;102789.03;4984052;28;20407;-82
2022/01/15 07:17:27;;;;;;;83.57;23.35;;;;;;;0.39;100.00;102783.81;4968472;28;20035;-81
2022/01/15 07:19:52;;;;;;;62.85;20.67;;;;;;;0.38;100.00;102796.03;4973154;28;20023;-81
2022/01/15 07:22:18;;;;;;;76.00;21.33;;;;;;;0.38;100.00;102793.41;4970812;28;20034;-80
2022/01/15 07:24:43;;;;;;;66.68;18.92;;;;;;;0.33;100.00;102783.66;4981287;28;20029;-81
2022/01/15 07:27:08;;;;;;;74.63;20.23;;;;;;;0.31;100.00;102793.22;4987745;28;20038;-81
2022/01/15 07:29:36;;;;;;;87.68;21.75;;;;;;;0.26;100.00;102784.38;4978849;28;20109;-81
2022/01/15 07:32:03;;;;;;;94.45;22.00;;;;;;;0.25;100.00;102791.31;4970703;28;20034;-81
2022/01/15 07:34:28;;;;;;;89.93;23.13;;;;;;;0.18;100.00;102784.22;4969558;28;20041;-81
2022/01/15 07:36:58;;;;;;;80.13;21.38;;;;;;;0.16;100.00;102786.78;4980998;28;20022;-81
2022/01/15 07:39:25;;;;;;;70.38;21.30;;;;;;;0.16;100.00;102780.66;4978509;28;20273;-81
2022/01/15 07:41:50;;;;;;;76.78;20.98;;;;;;;0.14;100.00;102779.75;4986301;28;20136;-81
2022/01/15 07:44:16;;;;;;;83.25;21.92;;;;;;;0.14;100.00;102787.59;4977352;28;20055;-81
2022/01/15 07:46:41;;;;;;;116.97;23.20;;;;;;;0.10;100.00;102784.03;4972389;28;20125;-81
2022/01/15 07:49:07;;;;;;;96.65;24.70;;;;;;;0.08;100.00;102782.19;4952715;28;20226;-81
2022/01/15 07:51:32;;;;;;;93.28;23.23;;;;;;;0.09;100.00;102786.63;4970190;28;20026;-81
2022/01/15 07:53:57;;;;;;;65.95;22.15;;;;;;;0.04;100.00;102790.84;4969599;28;20468;-81
2022/01/15 07:56:22;;;;;;;76.80;21.02;;;;;;;0.04;100.00;102793.44;4969358;28;20392;-81
2022/01/15 07:58:48;;;;;;;90.65;24.23;;;;;;;0.03;100.00;102783.84;4973702;28;20503;-81
2022/01/15 08:01:14;;;;;;;67.60;23.00;;;;;;;0.04;100.00;102789.09;4969416;28;20413;-80
2022/01/15 08:03:40;;;;;;;63.53;21.88;;;;;;;0.09;100.00;102797.97;4976891;28;20065;-80
2022/01/15 08:06:06;;;;;;;68.35;24.45;;;;;;;0.10;100.00;102791.00;4969186;28;20296;-80
2022/01/15 08:08:32;;;;;;;70.43;23.65;;;;;;;0.16;100.00;102792.00;4974834;28;20023;-80
2022/01/15 08:10:57;;;;;;;77.95;25.58;;;;;;;0.18;100.00;102794.69;4970751;28;20377;-80
2022/01/15 08:13:23;;;;;;;70.53;23.45;;;;;;;0.15;100.00;102785.00;4978848;28;20026;-80
2022/01/15 08:15:50;;;;;;;67.57;24.20;;;;;;;0.15;100.00;102792.88;4971448;28;20433;-81
2022/01/15 08:18:15;;;;;;;63.50;22.58;;;;;;;0.09;100.00;102778.75;4980540;28;20027;-80
2022/01/15 08:20:40;;;;;;;62.90;23.02;;;;;;;0.10;100.00;102783.16;4971484;28;20026;-81
2022/01/15 08:23:06;;;;;;;57.33;21.90;;;;;;;0.11;100.00;102774.44;4978446;28;20031;-82
2022/01/15 08:25:31;;;;;;;62.40;22.42;;;;;;;0.11;100.00;102787.53;4972495;28;20609;-82
2022/01/15 08:27:56;;;;;;;71.30;23.02;;;;;;;0.11;100.00;102783.16;4962643;28;20027;-82
2022/01/15 08:30:22;;;;;;;76.05;23.48;;;;;;;0.09;100.00;102787.50;4973189;28;20121;-82
2022/01/15 08:32:48;;;;;;;84.32;24.75;;;;;;;0.07;100.00;102780.44;4970564;28;20041;-82
2022/01/15 08:35:14;;;;;;;72.40;23.73;;;;;;;0.05;100.00;102775.19;4982037;28;20054;-82
2022/01/15 08:37:40;;;;;;;73.68;22.42;;;;;;;0.05;100.00;102769.06;4981717;28;20030;-82
2022/01/15 08:40:08;;;;;;;67.93;23.75;;;;;;;0.02;100.00;102769.88;4969221;28;20023;-82
2022/01/15 08:42:35;;;;;;;67.72;25.58;;;;;;;0.02;100.00;102771.59;4976103;28;20026;-82
2022/01/15 08:45:00;;;;;;;68.53;25.15;;;;;;;0.00;100.00;102771.59;4978267;28;20047;-82
2022/01/15 08:47:25;;;;;;;64.18;24.45;;;;;;;0.02;100.00;102768.97;4973666;28;20044;-82
2022/01/15 08:49:51;;;;;;;67.25;25.17;;;;;;;0.03;100.00;102770.75;4982770;28;20074;-82
2022/01/15 08:52:17;;;;;;;73.60;26.10;;;;;;;-0.04;100.00;102760.16;4977352;28;20383;-82
2022/01/15 08:54:42;;;;;;;75.45;26.35;;;;;;;0.04;100.00;102772.50;4973308;28;20086;-82
2022/01/15 08:57:07;;;;;;;64.13;25.98;;;;;;;0.03;100.00;102769.00;4981127;28;20104;-81
2022/01/15 08:59:32;;;;;;;85.38;25.85;;;;;;;0.06;100.00;102774.31;4976645;28;20034;-82
2022/01/15 09:01:59;;;;;;;70.82;27.73;;;;;;;0.10;100.00;102765.69;4979154;28;20031;-82
2022/01/15 09:04:24;;;;;;;71.97;27.50;;;;;;;0.15;100.00;102771.03;4971981;28;20023;-82
2022/01/15 09:06:50;;;;;;;74.70;26.33;;;;;;;0.21;100.00;102773.81;4982038;28;20065;-83
2022/01/15 09:09:15;;;;;;;76.18;28.27;;;;;;;0.21;100.00;102765.94;4983473;28;20437;-82
2022/01/15 09:11:41;;;;;;;80.57;29.05;;;;;;;0.30;100.00;102773.13;4976079;28;20061;-82
2022/01/15 09:14:07;;;;;;;83.60;29.25;;;;;;;0.30;100.00;102765.28;4969376;28;20019;-82
2022/01/15 09:16:32;;;;;;;71.88;26.80;;;;;;;0.36;100.00;102762.78;4974284;28;20172;-82
2022/01/15 09:18:57;;;;;;;71.95;27.63;;;;;;;0.34;100.00;102768.00;4985646;28;20030;-83
2022/01/15 09:21:24;;;;;;;73.25;27.30;;;;;;;0.29;100.00;102758.25;4978967;28;20531;-83
2022/01/15 09:23:49;;;;;;;70.60;27.27;;;;;;;0.32;100.00;102764.44;4977658;28;20076;-83
2022/01/15 09:26:45;;;;;;;76.55;28.55;;;;;;;0.28;100.00;102756.47;4970809;28;20064;-83
2022/01/15 09:31:54;;;;;;;76.75;26.13;;;;;;;0.33;100.00;102760.97;4976696;28;20042;-82
2022/01/15 09:34:19;;;;;;;77.20;28.15;;;;;;;0.38;100.00;102759.34;4972989;28;20034;-83
2022/01/15 09:36:44;;;;;;;75.55;26.90;;;;;;;0.37;100.00;102748.81;4969418;28;20023;-83
2022/01/15 09:39:10;;;;;;;88.57;27.50;;;;;;;0.37;100.00;102743.56;4968515;28;20027;-83
2022/01/15 09:41:38;;;;;;;80.82;27.63;;;;;;;0.43;100.00;102741.97;4971377;28;20043;-83
2022/01/15 09:44:04;;;;;;;89.50;27.90;;;;;;;0.43;100.00;102752.47;4973873;28;20042;-83
2022/01/15 09:46:31;;;;;;;75.53;26.98;;;;;;;0.42;100.00;102741.97;4975805;28;20581;-83
2022/01/15 09:48:56;;;;;;;82.63;28.23;;;;;;;0.38;100.00;102738.38;4974132;28;20035;-83
2022/01/15 09:51:22;;;;;;;79.82;27.95;;;;;;;0.36;100.00;102737.47;4970861;28;20443;-81
2022/01/15 09:53:48;;;;;;;100.47;29.90;;;;;;;0.32;100.00;102732.13;4969549;28;20106;-83
2022/01/15 09:56:13;;;;;;;81.63;27.45;;;;;;;0.34;100.00;102743.53;4971221;28;20035;-82
2022/01/15 09:58:38;;;;;;;77.97;26.95;;;;;;;0.43;100.00;102744.59;4974480;28;20050;-82
2022/01/15 10:01:03;;;;;;;88.03;29.13;;;;;;;0.53;100.00;102744.78;4973160;28;20476;-83
2022/01/15 10:03:29;;;;;;;91.45;30.88;;;;;;;0.55;100.00;102737.88;4973550;28;20180;-83
2022/01/15 10:05:54;;;;;;;86.00;29.92;;;;;;;0.65;100.00;102743.31;4978772;28;20825;-82
2022/01/15 10:08:20;;;;;;;101.35;32.30;;;;;;;0.64;100.00;102730.19;4971538;28;20436;-83
2022/01/15 10:10:52;;;;;;;88.80;29.35;;;;;;;0.73;100.00;102739.09;4976671;28;20054;-83
2022/01/15 10:13:17;;;;;;;82.15;29.27;;;;;;;0.77;100.00;102742.69;4971109;28;20123;-83
2022/01/15 10:15:45;;;;;;;79.03;29.10;;;;;;;0.78;100.00;102741.81;4981134;28;20105;-82
2022/01/15 10:18:25;;;;;;;77.00;27.23;;;;;;;0.74;100.00;102737.38;4976032;28;20144;-82
2022/01/15 10:20:51;;;;;;;75.68;27.20;;;;;;;0.80;100.00;102747.09;4975505;28;20050;-82
2022/01/15 10:23:19;;;;;;;93.75;29.55;;;;;;;0.77;100.00;102750.53;4973309;28;20601;-82
2022/01/15 10:25:45;;;;;;;81.13;25.85;;;;;;;0.72;100.00;102747.84;4975043;28;20034;-83
2022/01/15 10:28:10;;;;;;;88.10;28.38;;;;;;;0.74;100.00;102747.84;4973467;28;20425;-83
2022/01/15 10:30:36;;;;;;;82.30;27.15;;;;;;;0.74;100.00;102747.84;4978919;28;20022;-83
2022/01/15 10:33:03;;;;;;;79.68;26.33;;;;;;;0.70;100.00;102740.78;4982394;28;20315;-83
2022/01/15 10:35:34;;;;;;;73.68;26.10;;;;;;;0.74;100.00;102737.38;4974708;28;20057;-82
2022/01/15 10:38:03;;;;;;;74.63;26.23;;;;;;;0.76;100.00;102733.06;4977839;28;20021;-82
2022/01/15 10:40:38;;;;;;;79.85;26.48;;;;;;;0.79;100.00;102733.09;4978855;28;20498;-83
2022/01/15 10:43:05;;;;;;;64.65;26.35;;;;;;;0.80;100.00;102729.63;4979651;28;20077;-82
2022/01/15 10:45:34;;;;;;;72.90;27.40;;;;;;;0.85;100.00;102727.09;4978961;28;20026;-83
2022/01/15 10:48:02;;;;;;;68.53;26.73;;;;;;;0.84;100.00;102728.84;4959921;28;20122;-82
2022/01/15 10:50:31;;;;;;;69.32;27.13;;;;;;;0.86;100.00;102719.25;4977755;28;20034;-83
2022/01/15 10:52:58;;;;;;;71.75;28.10;;;;;;;0.90;100.00;102728.06;4982305;28;20380;-82
2022/01/15 10:55:29;;;;;;;72.47;27.75;;;;;;;0.98;100.00;102732.59;4955582;28;20437;-82
2022/01/15 10:57:57;;;;;;;76.28;28.45;;;;;;;1.08;100.00;102720.53;4982698;28;20376;-83
2022/01/15 11:00:51;;;;;;;69.88;27.60;;;;;;;1.19;100.00;102710.25;4967733;28;20113;-83
2022/01/15 11:03:17;;;;;;;76.93;27.02;;;;;;;1.26;100.00;102713.88;4972228;28;20073;-82
2022/01/15 11:05:47;;;;;;;68.07;24.92;;;;;;;1.24;100.00;102701.59;4979069;28;20034;-82
2022/01/15 11:08:12;;;;;;;69.97;26.67;;;;;;;1.33;100.00;102707.84;4974637;28;20111;-82
2022/01/15 11:10:50;;;;;;;64.43;26.38;;;;;;;1.35;100.00;102707.03;4975212;28;20046;-83
2022/01/15 11:13:18;;;;;;;67.63;26.80;;;;;;;1.37;100.00;102707.06;4969284;28;20031;-82
2022/01/15 11:15:49;;;;;;;69.35;26.33;;;;;;;1.41;100.00;102704.50;4979038;28;20117;-82
2022/01/15 11:18:22;;;;;;;62.47;25.45;;;;;;;1.43;100.00;102697.56;4973621;28;20069;-82
2022/01/15 11:20:52;;;;;;;64.47;26.38;;;;;;;1.49;100.00;102707.25;4974421;28;20093;-81
2022/01/15 11:23:20;;;;;;;58.28;24.00;;;;;;;1.47;100.00;102685.38;4957917;28;20073;-83
2022/01/15 11:25:46;;;;;;;57.88;23.67;;;;;;;1.54;100.00;102687.22;4978766;28;20125;-83
2022/01/15 11:28:12;;;;;;;54.38;23.42;;;;;;;1.58;100.00;102691.66;4983363;28;20037;-83
2022/01/15 11:30:39;;;;;;;61.10;24.63;;;;;;;1.49;100.00;102675.78;4974889;28;20384;-83
2022/01/15 11:33:04;;;;;;;59.28;26.70;;;;;;;1.61;100.00;102688.22;4970101;28;20031;-83